Time;durP1;ratioP1;P1;durP2;ratioP2;P2;SDS_P1;SDS_P2;PMS_P1;PMS_P2;Temp;Humidity;BMP_temperature;BMP_pressure;BME280_temperature;BME280_humidity;BME280_pressure;Samples;Min_cycle;Max_cycle;Signal;HPM_P1;HPM_P2
2021/06/16 00:00:28;;;;;;;6.60;5.87;;;20.80;74.40;;;;;;1853742;77;21125;-57
2021/06/16 00:02:57;;;;;;;13.58;5.97;;;20.90;74.60;;;;;;1853568;77;21094;-57
2021/06/16 00:05:29;;;;;;;6.75;5.62;;;20.90;74.50;;;;;;1853629;77;21036;-57
2021/06/16 00:07:58;;;;;;;5.70;5.05;;;20.90;74.40;;;;;;1853541;77;21075;-57
2021/06/16 00:10:33;;;;;;;6.72;5.30;;;20.90;74.70;;;;;;1853593;77;21075;-57
2021/06/16 00:13:04;;;;;;;5.95;5.37;;;21.00;75.00;;;;;;1853851;77;21059;-57
2021/06/16 00:15:36;;;;;;;6.92;5.95;;;21.10;75.00;;;;;;1853634;77;21101;-57
2021/06/16 00:18:06;;;;;;;9.70;6.58;;;21.20;74.90;;;;;;1853755;77;21532;-57
2021/06/16 00:20:36;;;;;;;7.75;6.03;;;21.20;74.50;;;;;;1853697;77;21028;-57
2021/06/16 00:23:06;;;;;;;6.50;5.37;;;21.20;74.50;;;;;;1853761;77;21016;-57
2021/06/16 00:25:38;;;;;;;8.93;5.55;;;21.10;74.50;;;;;;1853800;77;21110;-57
2021/06/16 00:28:07;;;;;;;6.58;5.58;;;21.00;74.70;;;;;;1853715;77;21121;-57
2021/06/16 00:30:36;;;;;;;8.60;5.10;;;20.90;74.90;;;;;;1853703;77;21099;-57
2021/06/16 00:33:07;;;;;;;5.75;4.97;;;20.90;75.20;;;;;;1853777;77;21094;-57
2021/06/16 00:35:36;;;;;;;8.05;5.35;;;20.90;75.60;;;;;;1853656;77;21063;-57
2021/06/16 00:38:06;;;;;;;8.33;4.85;;;20.90;75.80;;;;;;1853622;77;21036;-57
2021/06/16 00:40:35;;;;;;;7.25;5.22;;;21.00;75.70;;;;;;1832648;77;21051;-57
2021/06/16 00:43:05;;;;;;;5.33;4.80;;;21.10;75.70;;;;;;1853616;77;21012;-57
2021/06/16 00:45:35;;;;;;;7.03;5.03;;;21.20;75.40;;;;;;1853591;77;21680;-57
2021/06/16 00:48:05;;;;;;;6.40;4.62;;;21.20;75.30;;;;;;1853561;77;21028;-57
2021/06/16 00:50:36;;;;;;;9.10;5.75;;;21.20;75.50;;;;;;1853712;77;21016;-57
2021/06/16 00:53:06;;;;;;;14.00;4.85;;;21.30;75.30;;;;;;1853608;77;21039;-57
2021/06/16 00:55:40;;;;;;;8.25;5.00;;;21.30;75.20;;;;;;1853597;77;21059;-57
2021/06/16 00:58:12;;;;;;;7.85;4.80;;;21.30;75.50;;;;;;1853675;77;21071;-57
2021/06/16 01:01:14;;;;;;;10.65;5.45;;;21.30;75.70;;;;;;1853586;77;21105;-57
2021/06/16 01:04:05;;;;;;;6.62;5.00;;;21.30;75.70;;;;;;1853631;77;21016;-57
2021/06/16 01:06:41;;;;;;;8.48;5.75;;;21.20;75.40;;;;;;1853701;77;21106;-56
2021/06/16 01:09:13;;;;;;;;;;;21.10;75.70;;;;;;1856425;77;21543;-57
2021/06/16 01:12:03;;;;;;;6.60;5.50;;;21.00;76.10;;;;;;1853645;77;20110;-57
2021/06/16 01:15:03;;;;;;;6.17;5.55;;;20.90;75.70;;;;;;1853621;77;21004;-56
2021/06/16 01:17:48;;;;;;;7.58;5.58;;;20.80;76.20;;;;;;1853581;77;21072;-57
2021/06/16 01:20:38;;;;;;;7.73;6.03;;;20.80;76.60;;;;;;1853970;77;21052;-56
2021/06/16 01:23:22;;;;;;;7.83;5.72;;;20.70;77.00;;;;;;1853629;77;21476;-56
2021/06/16 01:26:03;;;;;;;6.28;5.67;;;20.60;77.00;;;;;;1834820;77;21048;-56
2021/06/16 01:28:38;;;;;;;5.95;5.25;;;20.60;77.20;;;;;;1853716;77;21123;-58
2021/06/16 01:31:10;;;;;;;5.67;5.15;;;20.60;77.20;;;;;;1853737;77;21052;-58
2021/06/16 01:33:40;;;;;;;6.28;5.60;;;20.50;77.20;;;;;;1853602;77;21154;-58
2021/06/16 01:36:11;;;;;;;6.87;5.60;;;20.40;77.30;;;;;;1853551;77;21083;-58
2021/06/16 01:38:41;;;;;;;8.10;5.25;;;20.30;77.60;;;;;;1853617;77;21404;-58
2021/06/16 01:41:12;;;;;;;8.40;6.53;;;20.20;77.90;;;;;;1853540;77;21079;-58
2021/06/16 01:43:42;;;;;;;7.17;5.65;;;20.30;78.30;;;;;;1853646;77;21513;-58
2021/06/16 01:46:12;;;;;;;8.73;5.37;;;20.30;78.50;;;;;;1854019;77;21059;-57
2021/06/16 01:48:42;;;;;;;6.62;5.42;;;20.40;78.60;;;;;;1905092;75;21043;-58
2021/06/16 01:51:13;;;;;;;9.05;5.80;;;20.40;78.70;;;;;;1904943;74;21066;-57
2021/06/16 01:53:43;;;;;;;7.42;5.92;;;20.50;78.50;;;;;;1904994;75;21019;-58
2021/06/16 01:56:12;;;;;;;10.45;6.20;;;20.50;78.20;;;;;;1904987;74;21069;-58
2021/06/16 01:58:44;;;;;;;7.65;5.05;;;20.50;78.00;;;;;;1904991;75;20983;-58
2021/06/16 02:01:19;;;;;;;7.75;5.17;;;20.50;78.20;;;;;;1905028;75;21578;-58
2021/06/16 02:03:47;;;;;;;;;;;20.50;78.40;;;;;;1907920;75;21031;-58
2021/06/16 02:06:19;;;;;;;7.58;5.55;;;20.50;78.20;;;;;;1904911;75;20355;-57
2021/06/16 02:08:50;;;;;;;6.22;5.60;;;20.40;78.20;;;;;;1905113;75;21505;-58
2021/06/16 02:11:21;;;;;;;6.58;5.97;;;20.40;78.50;;;;;;1904918;75;21129;-57
2021/06/16 02:13:56;;;;;;;7.30;5.87;;;20.50;78.70;;;;;;1904981;75;21028;-58
2021/06/16 02:16:34;;;;;;;6.10;5.28;;;20.50;78.80;;;;;;1905025;74;21077;-58
2021/06/16 02:19:12;;;;;;;9.50;5.83;;;20.60;78.90;;;;;;1904979;75;21098;-58
2021/06/16 02:21:43;;;;;;;8.13;5.58;;;20.60;78.70;;;;;;1904817;74;21027;-58
2021/06/16 02:24:13;;;;;;;5.37;4.87;;;20.60;78.80;;;;;;1905050;75;21008;-58
2021/06/16 02:26:42;;;;;;;6.42;5.62;;;20.70;78.70;;;;;;1905047;75;21023;-58
2021/06/16 02:29:12;;;;;;;7.85;5.45;;;20.70;78.70;;;;;;1905079;75;21089;-58
2021/06/16 02:31:43;;;;;;;6.90;6.28;;;20.80;78.70;;;;;;1904942;75;21040;-57
2021/06/16 02:34:12;;;;;;;7.72;6.05;;;20.80;78.60;;;;;;1905084;75;21027;-58
2021/06/16 02:36:47;;;;;;;9.10;5.90;;;20.90;78.50;;;;;;1905079;75;21023;-58
2021/06/16 02:39:21;;;;;;;9.20;6.35;;;20.90;78.60;;;;;;1905220;75;21024;-58
2021/06/16 02:41:51;;;;;;;9.83;6.45;;;20.90;78.50;;;;;;1905307;75;21465;-58
2021/06/16 02:44:21;;;;;;;8.33;6.05;;;21.00;78.60;;;;;;1905044;75;21027;-58
2021/06/16 02:46:52;;;;;;;8.00;5.60;;;21.00;78.50;;;;;;1907517;75;21047;-58
2021/06/16 02:49:24;;;;;;;8.30;6.97;;;21.10;78.40;;;;;;1918405;75;21019;-58
2021/06/16 02:51:54;;;;;;;6.10;5.15;;;21.10;78.30;;;;;;1918024;74;21042;-58
2021/06/16 02:54:24;;;;;;;6.78;5.90;;;21.10;78.40;;;;;;1881801;76;21014;-58
2021/06/16 02:56:54;;;;;;;6.05;5.20;;;21.10;78.40;;;;;;1918466;75;21081;-58
2021/06/16 02:59:26;;;;;;;6.85;6.15;;;21.10;78.50;;;;;;1881761;76;21021;-58
2021/06/16 03:01:56;;;;;;;7.55;6.55;;;21.10;78.50;;;;;;1918432;75;21023;-58
2021/06/16 03:04:26;;;;;;;8.43;6.25;;;21.00;78.40;;;;;;1881813;76;20986;-58
2021/06/16 03:06:57;;;;;;;9.20;6.15;;;21.10;78.50;;;;;;1918416;75;21023;-58
2021/06/16 03:09:27;;;;;;;9.13;7.45;;;21.10;78.70;;;;;;1918383;74;21007;-58
2021/06/16 03:11:57;;;;;;;9.78;5.80;;;21.00;78.80;;;;;;1881714;76;21021;-58
2021/06/16 03:14:27;;;;;;;7.67;6.87;;;21.00;78.80;;;;;;1918361;75;20991;-58
2021/06/16 03:16:58;;;;;;;9.05;6.17;;;21.10;79.00;;;;;;1881681;76;21026;-58
2021/06/16 03:19:28;;;;;;;8.58;6.40;;;21.00;78.70;;;;;;1918344;75;20986;-58
2021/06/16 03:21:58;;;;;;;6.55;5.70;;;20.90;78.80;;;;;;1881739;75;21014;-58
2021/06/16 03:24:28;;;;;;;8.15;5.87;;;20.80;79.20;;;;;;1918421;74;21046;-58
2021/06/16 03:26:58;;;;;;;6.42;5.67;;;20.80;79.50;;;;;;1881720;76;21037;-58
2021/06/16 03:29:28;;;;;;;6.22;5.42;;;20.80;79.60;;;;;;1918420;75;21092;-58
2021/06/16 03:31:58;;;;;;;7.30;6.00;;;20.80;79.60;;;;;;1881707;75;21018;-58
2021/06/16 03:34:28;;;;;;;6.60;5.67;;;20.90;79.70;;;;;;1918477;75;21035;-58
2021/06/16 03:36:59;;;;;;;7.47;5.60;;;21.00;79.70;;;;;;1881782;76;21080;-58
2021/06/16 03:39:30;;;;;;;7.87;6.67;;;21.00;79.80;;;;;;1918419;74;21088;-58
2021/06/16 03:42:00;;;;;;;7.67;6.83;;;21.00;79.40;;;;;;1881841;76;21038;-58
2021/06/16 03:44:31;;;;;;;6.90;6.20;;;20.90;79.10;;;;;;1918419;75;21019;-58
2021/06/16 03:47:01;;;;;;;6.40;5.78;;;20.80;79.30;;;;;;1918285;75;21073;-57
2021/06/16 03:49:32;;;;;;;6.53;5.92;;;20.70;79.60;;;;;;1881732;76;20995;-58
2021/06/16 03:52:02;;;;;;;6.62;6.03;;;20.60;80.00;;;;;;1918353;75;21010;-57
2021/06/16 03:54:32;;;;;;;6.55;5.83;;;20.40;80.20;;;;;;1881762;76;21022;-57
2021/06/16 03:57:01;;;;;;;6.28;5.22;;;20.40;81.10;;;;;;1918349;75;21023;-57
2021/06/16 03:59:31;;;;;;;5.85;5.25;;;20.40;80.70;;;;;;1881732;76;21022;-56
2021/06/16 04:02:01;;;;;;;5.65;5.15;;;20.30;80.50;;;;;;1918253;75;21062;-57
2021/06/16 04:04:31;;;;;;;6.58;5.53;;;20.20;80.30;;;;;;1881707;76;21073;-57
2021/06/16 04:07:01;;;;;;;7.25;6.17;;;20.20;80.40;;;;;;1918317;75;21031;-57
2021/06/16 04:09:31;;;;;;;8.48;6.15;;;20.10;80.80;;;;;;1881831;75;21053;-57
2021/06/16 04:12:00;;;;;;;7.67;6.80;;;20.10;81.10;;;;;;1918310;75;21035;-57
2021/06/16 04:14:29;;;;;;;6.47;5.83;;;20.20;81.30;;;;;;1918296;75;21088;-57
2021/06/16 04:16:59;;;;;;;7.42;5.62;;;20.20;81.40;;;;;;1881684;76;21510;-57
2021/06/16 04:19:28;;;;;;;6.70;5.40;;;20.30;80.90;;;;;;1918405;75;21054;-57
2021/06/16 04:21:58;;;;;;;5.92;4.67;;;20.20;80.60;;;;;;1881723;76;21092;-57
2021/06/16 04:24:27;;;;;;;6.42;5.83;;;20.20;80.50;;;;;;1918219;75;21011;-57
2021/06/16 04:26:57;;;;;;;7.25;5.55;;;20.20;80.70;;;;;;1881678;76;21034;-57
2021/06/16 04:29:26;;;;;;;6.42;5.15;;;20.30;81.00;;;;;;1918366;75;21548;-57
2021/06/16 04:31:56;;;;;;;9.43;6.20;;;20.30;80.90;;;;;;1881677;76;21029;-57
2021/06/16 04:34:25;;;;;;;11.48;6.03;;;20.40;81.00;;;;;;1918303;75;21003;-57
2021/06/16 04:36:54;;;;;;;10.70;6.03;;;20.60;80.80;;;;;;1918318;74;21082;-57
2021/06/16 04:39:24;;;;;;;9.30;6.75;;;20.60;80.30;;;;;;1918291;75;21065;-57
2021/06/16 04:41:54;;;;;;;8.18;5.95;;;20.60;79.90;;;;;;1881624;76;21021;-57
2021/06/16 04:44:23;;;;;;;11.00;6.58;;;20.50;79.70;;;;;;1918235;75;21164;-57
2021/06/16 04:46:52;;;;;;;9.88;6.95;;;20.50;80.00;;;;;;1918257;75;21018;-57
2021/06/16 04:49:22;;;;;;;16.55;8.28;;;20.50;80.40;;;;;;1872188;76;21062;-57
2021/06/16 04:51:53;;;;;;;12.25;8.45;;;20.50;80.40;;;;;;1904945;74;21085;-57
2021/06/16 04:54:22;;;;;;;17.10;9.73;;;20.60;80.40;;;;;;1904990;74;21020;-57
2021/06/16 04:56:51;;;;;;;12.37;6.85;;;20.60;80.60;;;;;;1904948;75;21016;-57
2021/06/16 04:59:21;;;;;;;8.70;6.80;;;20.70;80.70;;;;;;1905076;75;21051;-57
2021/06/16 05:01:50;;;;;;;9.35;6.83;;;20.90;80.60;;;;;;1905048;75;21478;-57
2021/06/16 05:04:20;;;;;;;9.78;6.33;;;21.00;80.60;;;;;;1904916;74;21093;-57
2021/06/16 05:06:49;;;;;;;7.72;5.12;;;21.10;80.60;;;;;;1905051;74;21027;-57
2021/06/16 05:09:18;;;;;;;6.40;4.35;;;21.20;80.10;;;;;;1904954;75;21011;-58
2021/06/16 05:11:48;;;;;;;7.17;4.97;;;21.30;79.60;;;;;;1904828;74;21101;-57
2021/06/16 05:14:17;;;;;;;4.90;4.05;;;21.30;79.70;;;;;;1904986;75;21036;-57
2021/06/16 05:16:47;;;;;;;9.00;6.22;;;21.40;80.00;;;;;;1904874;75;21016;-58
2021/06/16 05:19:19;;;;;;;8.48;3.90;;;21.50;80.00;;;;;;1905031;75;21036;-58
2021/06/16 05:21:47;;;;;;;4.20;3.47;;;21.60;79.60;;;;;;1904918;74;21093;-58
2021/06/16 05:24:18;;;;;;;6.65;3.42;;;21.70;79.30;;;;;;1905094;75;21100;-58
2021/06/16 05:26:47;;;;;;;4.25;3.37;;;21.80;78.80;;;;;;1904880;75;21008;-57
2021/06/16 05:29:16;;;;;;;7.45;3.62;;;21.90;78.40;;;;;;1904881;74;21023;-58
2021/06/16 05:31:46;;;;;;;7.15;3.35;;;22.00;78.40;;;;;;1904955;75;21073;-57
2021/06/16 05:34:15;;;;;;;7.03;2.87;;;22.10;77.90;;;;;;1904997;74;21411;-58
2021/06/16 05:36:45;;;;;;;9.48;3.90;;;22.20;76.80;;;;;;1904948;75;21043;-57
2021/06/16 05:39:14;;;;;;;5.58;3.60;;;22.20;76.80;;;;;;1904995;75;21027;-57
2021/06/16 05:41:43;;;;;;;5.85;3.70;;;22.30;76.70;;;;;;1905166;74;21031;-57
2021/06/16 05:44:12;;;;;;;13.40;4.70;;;22.30;76.70;;;;;;1905042;75;21016;-58
2021/06/16 05:46:42;;;;;;;11.10;5.05;;;22.30;76.60;;;;;;1904879;74;21027;-57
2021/06/16 05:49:12;;;;;;;10.45;5.65;;;22.30;76.30;;;;;;1910362;74;21082;-57
2021/06/16 05:51:41;;;;;;;12.63;5.28;;;22.40;76.40;;;;;;1918249;75;21027;-57
2021/06/16 05:54:11;;;;;;;9.53;5.00;;;22.40;76.00;;;;;;1918205;75;21113;-58
2021/06/16 05:56:42;;;;;;;13.48;6.35;;;22.40;75.60;;;;;;1881752;76;21026;-57
2021/06/16 05:59:11;;;;;;;11.05;4.70;;;22.50;75.50;;;;;;1918238;75;21054;-57
2021/06/16 06:01:40;;;;;;;15.63;6.62;;;22.50;74.70;;;;;;1918222;75;21035;-58
2021/06/16 06:04:10;;;;;;;11.57;6.37;;;22.40;75.00;;;;;;1918191;75;21065;-58
2021/06/16 06:06:40;;;;;;;10.60;4.53;;;22.30;74.50;;;;;;1918320;75;21026;-58
2021/06/16 06:09:09;;;;;;;9.75;4.75;;;22.30;74.20;;;;;;1918411;75;21191;-58
2021/06/16 06:11:39;;;;;;;8.73;4.70;;;22.20;74.60;;;;;;1881971;76;21053;-57
2021/06/16 06:14:08;;;;;;;7.62;4.12;;;22.20;74.80;;;;;;1918432;74;21019;-57
2021/06/16 06:16:37;;;;;;;5.33;3.75;;;22.20;74.50;;;;;;1881730;76;21082;-57
2021/06/16 06:19:07;;;;;;;5.67;3.62;;;22.20;74.50;;;;;;1918049;75;21023;-58
2021/06/16 06:21:36;;;;;;;7.12;3.95;;;22.20;74.60;;;;;;1918086;75;21100;-57
2021/06/16 06:24:06;;;;;;;9.83;5.92;;;22.20;74.60;;;;;;1918116;75;21015;-58
2021/06/16 06:26:36;;;;;;;8.68;4.45;;;22.30;74.50;;;;;;1918062;75;20999;-58
2021/06/16 06:29:05;;;;;;;13.95;4.70;;;22.20;74.60;;;;;;1918355;75;21084;-58
2021/06/16 06:31:35;;;;;;;9.30;4.90;;;22.30;74.90;;;;;;1918023;75;21019;-57
2021/06/16 06:34:05;;;;;;;10.82;5.95;;;22.30;74.90;;;;;;1881853;76;21076;-58
2021/06/16 06:36:34;;;;;;;12.37;6.83;;;22.40;75.10;;;;;;1918476;74;21019;-57
2021/06/16 06:39:04;;;;;;;12.37;5.67;;;22.40;74.80;;;;;;1918343;74;21019;-58
2021/06/16 06:41:34;;;;;;;9.63;4.40;;;22.40;74.70;;;;;;1918365;75;21022;-58
2021/06/16 06:44:03;;;;;;;6.92;4.28;;;22.40;74.40;;;;;;1881658;76;21096;-58
2021/06/16 06:46:32;;;;;;;7.58;4.85;;;22.30;74.60;;;;;;1918325;75;21031;-57
2021/06/16 06:49:02;;;;;;;7.85;4.62;;;22.30;74.80;;;;;;1880427;76;21093;-58
2021/06/16 06:51:32;;;;;;;5.30;4.20;;;22.40;75.10;;;;;;1904998;75;21039;-57
2021/06/16 06:54:00;;;;;;;5.12;4.05;;;22.40;75.30;;;;;;1905002;75;21076;-58
2021/06/16 06:56:30;;;;;;;6.78;3.52;;;22.40;75.10;;;;;;1904936;74;21403;-58
2021/06/16 06:58:59;;;;;;;6.40;4.30;;;22.40;74.90;;;;;;1904921;74;20987;-57
2021/06/16 07:01:29;;;;;;;5.80;3.70;;;22.50;74.70;;;;;;1904925;74;21012;-58
2021/06/16 07:04:01;;;;;;;19.92;5.42;;;22.40;74.50;;;;;;1905144;75;21089;-58
2021/06/16 07:06:30;;;;;;;5.42;4.25;;;22.40;74.30;;;;;;1904848;74;21156;-58
2021/06/16 07:08:59;;;;;;;6.00;4.03;;;22.50;74.50;;;;;;1905203;75;21000;-58
2021/06/16 07:11:29;;;;;;;6.70;3.90;;;22.50;74.80;;;;;;1904974;75;21051;-58
2021/06/16 07:13:59;;;;;;;9.08;3.85;;;22.60;74.80;;;;;;1905173;75;21087;-58
2021/06/16 07:16:28;;;;;;;6.97;3.50;;;22.60;74.10;;;;;;1905162;75;21105;-58
2021/06/16 07:18:57;;;;;;;5.55;4.53;;;22.60;74.10;;;;;;1905125;75;21081;-58
2021/06/16 07:21:27;;;;;;;11.90;4.08;;;22.60;74.20;;;;;;1905142;75;21085;-58
2021/06/16 07:23:56;;;;;;;7.05;3.30;;;22.60;74.50;;;;;;1905016;75;21000;-58
2021/06/16 07:26:25;;;;;;;4.75;3.52;;;22.60;74.40;;;;;;1905137;75;21025;-58
2021/06/16 07:28:55;;;;;;;6.42;3.50;;;22.70;74.20;;;;;;1905153;75;21019;-58
2021/06/16 07:31:24;;;;;;;6.67;3.47;;;22.70;73.70;;;;;;1905039;75;21097;-58
2021/06/16 07:33:53;;;;;;;7.22;3.20;;;22.70;73.60;;;;;;1905085;75;21027;-58
2021/06/16 07:36:22;;;;;;;6.92;3.15;;;22.70;73.60;;;;;;1905126;74;21124;-57
2021/06/16 07:38:52;;;;;;;4.37;3.37;;;22.70;73.70;;;;;;1905015;75;21023;-55
2021/06/16 07:41:21;;;;;;;11.53;4.03;;;22.80;74.00;;;;;;1903991;75;21373;-59
2021/06/16 07:43:51;;;;;;;13.43;4.83;;;22.80;74.40;;;;;;1904404;75;21515;-57
2021/06/16 07:46:22;;;;;;;4.80;3.75;;;23.00;74.90;;;;;;1904380;75;20992;-56
2021/06/16 07:48:51;;;;;;;7.95;3.75;;;23.10;75.10;;;;;;1904027;75;21054;-55
2021/06/16 07:51:21;;;;;;;8.60;3.80;;;23.30;74.90;;;;;;1913946;75;21098;-55
2021/06/16 07:53:51;;;;;;;7.95;3.85;;;23.50;74.10;;;;;;1880582;76;21010;-57
2021/06/16 07:56:20;;;;;;;9.08;3.33;;;23.60;73.60;;;;;;1894838;75;21151;-56
2021/06/16 07:58:50;;;;;;;5.30;3.52;;;23.60;72.10;;;;;;1917567;75;21014;-56
2021/06/16 08:01:20;;;;;;;5.92;3.50;;;23.50;72.20;;;;;;1916189;73;21007;-57
2021/06/16 08:03:49;;;;;;;6.55;3.02;;;23.50;72.30;;;;;;1899486;75;21013;-54
2021/06/16 08:06:19;;;;;;;15.43;3.83;;;23.50;72.70;;;;;;1949793;73;21088;-53
2021/06/16 08:08:49;;;;;;;7.45;3.22;;;23.60;72.90;;;;;;1958635;73;21014;-54
2021/06/16 08:11:20;;;;;;;10.60;3.37;;;23.60;72.70;;;;;;1958397;73;21085;-56
2021/06/16 08:13:49;;;;;;;5.20;3.12;;;23.70;72.70;;;;;;1958619;73;21053;-57
2021/06/16 08:16:20;;;;;;;4.65;3.35;;;23.80;72.70;;;;;;1912694;73;21116;-52
2021/06/16 08:18:51;;;;;;;4.70;3.37;;;23.80;71.40;;;;;;1914922;73;21039;-52
2021/06/16 08:21:23;;;;;;;10.05;5.10;;;23.80;71.70;;;;;;1958598;73;21081;-51
2021/06/16 08:23:52;;;;;;;3.58;2.50;;;23.90;72.30;;;;;;1958564;73;21132;-56
2021/06/16 08:26:22;;;;;;;5.15;3.02;;;23.90;71.40;;;;;;1958489;73;21018;-52
2021/06/16 08:28:51;;;;;;;4.12;2.85;;;23.80;71.20;;;;;;1958074;73;21120;-55
2021/06/16 08:31:20;;;;;;;4.70;2.85;;;23.70;71.40;;;;;;1957604;73;21066;-47
2021/06/16 08:33:50;;;;;;;7.03;3.90;;;23.70;71.50;;;;;;1931627;73;21159;-55
2021/06/16 08:36:20;;;;;;;12.15;3.80;;;23.60;71.70;;;;;;1917158;75;21054;-56
2021/06/16 08:38:51;;;;;;;5.95;3.05;;;23.60;72.10;;;;;;1916007;75;21014;-51
2021/06/16 08:41:21;;;;;;;8.18;2.80;;;23.60;72.00;;;;;;1915960;75;21098;-51
2021/06/16 08:43:51;;;;;;;3.45;2.70;;;23.50;71.90;;;;;;1915967;75;21026;-50
2021/06/16 08:46:21;;;;;;;5.75;3.05;;;23.50;72.40;;;;;;1915790;75;21086;-53
2021/06/16 08:48:50;;;;;;;5.20;2.85;;;23.50;72.80;;;;;;1917195;75;21461;-53
2021/06/16 08:51:21;;;;;;;9.70;3.30;;;23.50;73.00;;;;;;1917448;74;21054;-55
2021/06/16 08:53:50;;;;;;;6.78;2.80;;;23.60;73.00;;;;;;1917607;75;21070;-55
2021/06/16 08:56:19;;;;;;;3.58;2.10;;;23.60;72.70;;;;;;1917554;75;21062;-53
2021/06/16 08:58:48;;;;;;;6.58;2.45;;;23.70;72.60;;;;;;1917547;75;21031;-49
2021/06/16 09:01:18;;;;;;;4.97;2.20;;;23.80;72.60;;;;;;1917658;75;21414;-54
2021/06/16 09:03:47;;;;;;;6.75;3.65;;;23.80;72.20;;;;;;1917397;75;21038;-55
2021/06/16 09:06:17;;;;;;;5.55;2.15;;;23.80;72.10;;;;;;1917365;75;21070;-51
2021/06/16 09:09:07;;;;;;;5.05;2.45;;;23.80;72.10;;;;;;1917602;75;21034;-56
2021/06/16 09:11:46;;;;;;;10.70;3.92;;;23.80;72.10;;;;;;1917413;75;21140;-50
2021/06/16 09:14:23;;;;;;;5.28;3.27;;;23.90;72.10;;;;;;1917286;75;21067;-53
2021/06/16 09:16:53;;;;;;;8.70;2.60;;;23.80;71.80;;;;;;1917629;75;21058;-53
2021/06/16 09:19:24;;;;;;;7.85;2.83;;;24.00;71.90;;;;;;1916959;75;21093;-51
2021/06/16 09:22:07;;;;;;;10.38;3.17;;;24.00;71.70;;;;;;1916442;75;21136;-53
2021/06/16 09:24:50;;;;;;;8.40;2.87;;;24.10;71.90;;;;;;1917382;75;21019;-52
2021/06/16 09:27:37;;;;;;;7.12;3.30;;;24.20;71.80;;;;;;1917035;74;21070;-53
2021/06/16 09:30:24;;;;;;;3.27;2.22;;;24.20;71.60;;;;;;1917267;75;21062;-53
2021/06/16 09:33:01;;;;;;;16.97;3.40;;;24.30;71.40;;;;;;1917313;75;21070;-54
2021/06/16 09:35:33;;;;;;;9.60;3.80;;;24.30;70.90;;;;;;1916807;74;21023;-56
2021/06/16 09:38:05;;;;;;;6.15;3.10;;;24.30;70.90;;;;;;1916912;74;21477;-53
2021/06/16 09:40:40;;;;;;;5.05;2.85;;;24.30;70.70;;;;;;1914602;73;21030;-54
2021/06/16 09:43:16;;;;;;;;;;;24.30;71.00;;;;;;1924730;73;21316;-51
2021/06/16 09:45:47;;;;;;;4.08;2.72;;;24.30;70.90;;;;;;1943527;73;20151;-54
2021/06/16 09:48:27;;;;;;;3.00;2.08;;;24.30;70.90;;;;;;1904023;73;21143;-55
2021/06/16 09:51:17;;;;;;;3.95;1.52;;;24.20;70.90;;;;;;1940202;73;21274;-55
2021/06/16 09:54:21;;;;;;;2.00;1.70;;;24.30;70.30;;;;;;1908710;74;21035;-52
2021/06/16 09:56:59;;;;;;;5.58;1.75;;;24.20;69.90;;;;;;1933489;74;21101;-53
2021/06/16 09:59:39;;;;;;;4.78;2.62;;;24.20;69.50;;;;;;1935547;74;21086;-52
2021/06/16 10:02:19;;;;;;;5.03;2.72;;;24.10;69.20;;;;;;1936047;74;21039;-52
2021/06/16 10:04:57;;;;;;;5.33;2.45;;;24.00;69.90;;;;;;1928878;74;21090;-52
2021/06/16 10:07:30;;;;;;;5.17;3.95;;;24.00;70.60;;;;;;1935776;74;21101;-52
2021/06/16 10:10:07;;;;;;;4.85;1.87;;;23.90;70.10;;;;;;1935753;74;21106;-52
2021/06/16 10:12:38;;;;;;;3.33;1.98;;;23.90;69.90;;;;;;1935949;74;21093;-51
2021/06/16 10:15:16;;;;;;;7.08;3.45;;;23.90;70.30;;;;;;1935872;74;21085;-51
2021/06/16 10:17:46;;;;;;;7.12;2.60;;;23.80;69.80;;;;;;1935039;74;21079;-51
2021/06/16 10:20:17;;;;;;;9.58;2.87;;;23.70;70.00;;;;;;1934123;74;21090;-52
2021/06/16 10:22:46;;;;;;;7.47;2.02;;;23.60;69.90;;;;;;1934940;74;21047;-50
2021/06/16 10:25:16;;;;;;;6.90;1.85;;;23.50;69.70;;;;;;1935317;74;21004;-51
2021/06/16 10:27:56;;;;;;;6.85;3.00;;;23.50;69.90;;;;;;1934718;74;21070;-51
2021/06/16 10:30:28;;;;;;;8.55;5.03;;;23.40;69.80;;;;;;1934977;74;21062;-52
2021/06/16 10:32:58;;;;;;;14.93;5.55;;;23.30;70.00;;;;;;1925565;74;21178;-51
2021/06/16 10:35:36;;;;;;;10.48;6.97;;;23.20;70.00;;;;;;1873097;76;21091;-50
2021/06/16 10:38:22;;;;;;;15.00;9.10;;;23.20;70.10;;;;;;1873058;76;21025;-49
2021/06/16 10:40:57;;;;;;;15.50;7.50;;;23.10;70.20;;;;;;1871949;75;21005;-51
2021/06/16 10:43:24;;;;;;;13.15;7.42;;;23.00;70.60;;;;;;1872166;76;21535;-48
2021/06/16 10:45:55;;;;;;;9.43;5.20;;;23.10;70.70;;;;;;1872173;76;21040;-47
2021/06/16 10:48:44;;;;;;;9.68;5.40;;;23.00;70.70;;;;;;1872585;76;21025;-50
2021/06/16 10:51:31;;;;;;;11.12;5.30;;;23.00;70.60;;;;;;1873067;76;21169;-48
2021/06/16 10:54:24;;;;;;;12.60;6.37;;;22.90;70.80;;;;;;1872730;76;21041;-50
2021/06/16 10:56:57;;;;;;;16.52;8.43;;;22.90;71.10;;;;;;1872940;75;21013;-46
2021/06/16 10:59:48;;;;;;;7.67;4.20;;;22.80;71.20;;;;;;1872913;76;21517;-49
2021/06/16 11:02:25;;;;;;;8.53;4.20;;;22.80;71.70;;;;;;1872925;75;21075;-47
2021/06/16 11:05:14;;;;;;;4.25;1.75;;;22.80;71.20;;;;;;1871452;75;21025;-50
2021/06/16 11:07:44;;;;;;;3.35;1.80;;;22.80;71.10;;;;;;1872767;76;21106;-48
2021/06/16 11:10:13;;;;;;;2.72;1.40;;;22.80;71.00;;;;;;1872736;75;21142;-50
2021/06/16 11:12:48;;;;;;;4.08;1.65;;;22.70;71.30;;;;;;1872989;75;21080;-57
2021/06/16 11:15:29;;;;;;;32.42;3.72;;;22.70;71.60;;;;;;1872960;77;21005;-54
2021/06/16 11:18:01;;;;;;;2.05;1.45;;;22.70;71.80;;;;;;1872871;76;21024;-53
2021/06/16 11:20:41;;;;;;;1.82;1.30;;;22.70;71.70;;;;;;1872758;75;21032;-53
2021/06/16 11:23:12;;;;;;;3.40;1.40;;;22.60;71.40;;;;;;1872820;75;21044;-54
2021/06/16 11:25:42;;;;;;;8.20;2.72;;;22.60;71.20;;;;;;1797615;78;21188;-54
2021/06/16 11:28:20;;;;;;;5.78;2.40;;;22.60;71.30;;;;;;1801201;80;21112;-54
2021/06/16 11:30:58;;;;;;;5.58;2.10;;;22.50;71.20;;;;;;1872824;76;21033;-54
2021/06/16 11:33:31;;;;;;;7.40;1.87;;;22.50;71.30;;;;;;1872917;77;21462;-54
2021/06/16 11:36:11;;;;;;;5.12;1.07;;;22.50;71.60;;;;;;1872677;75;21032;-53
2021/06/16 11:38:46;;;;;;;6.25;1.45;;;22.50;71.20;;;;;;1872692;76;21001;-52
2021/06/16 11:41:24;;;;;;;10.28;1.95;;;22.50;71.10;;;;;;1865148;76;21111;-54
2021/06/16 11:44:02;;;;;;;8.43;1.70;;;22.60;71.10;;;;;;1872925;76;21076;-53
2021/06/16 11:46:36;;;;;;;6.58;1.52;;;22.60;71.00;;;;;;1872520;76;21537;-54
2021/06/16 11:49:08;;;;;;;7.83;1.50;;;22.60;71.20;;;;;;1872874;76;21025;-52
2021/06/16 11:51:56;;;;;;;2.37;1.25;;;22.70;71.30;;;;;;1873024;75;21037;-53
2021/06/16 11:54:28;;;;;;;6.20;1.90;;;22.60;70.80;;;;;;1873115;76;21052;-54
2021/06/16 11:56:59;;;;;;;4.72;1.32;;;22.70;70.40;;;;;;1873363;75;21053;-54
2021/06/16 11:59:40;;;;;;;3.42;1.10;;;22.70;70.00;;;;;;1873233;76;21005;-52
2021/06/16 12:02:32;;;;;;;3.00;1.30;;;22.70;69.90;;;;;;1873368;76;21001;-54
2021/06/16 12:05:04;;;;;;;6.33;2.22;;;22.70;69.60;;;;;;1873161;75;21049;-52
2021/06/16 12:07:44;;;;;;;5.25;1.55;;;22.70;69.60;;;;;;1873119;76;21041;-52
2021/06/16 12:10:14;;;;;;;5.08;2.12;;;22.70;69.30;;;;;;1872163;76;21048;-53
2021/06/16 12:12:55;;;;;;;8.53;2.02;;;22.70;69.10;;;;;;1873353;76;21060;-53
2021/06/16 12:15:26;;;;;;;3.83;2.12;;;22.70;69.20;;;;;;1867618;76;21154;-54
2021/06/16 12:18:01;;;;;;;9.48;2.62;;;22.70;69.20;;;;;;1873146;75;21076;-52
2021/06/16 12:20:39;;;;;;;3.62;1.87;;;22.60;69.60;;;;;;1873203;76;21033;-53
2021/06/16 12:23:31;;;;;;;6.97;2.20;;;22.60;69.90;;;;;;1873089;76;21484;-54
2021/06/16 12:26:05;;;;;;;6.25;1.70;;;22.60;70.00;;;;;;1873138;76;21021;-52
2021/06/16 12:28:35;;;;;;;;;;;22.70;70.60;;;;;;1875826;76;21065;-52
2021/06/16 12:31:06;;;;;;;4.85;1.65;;;22.70;70.80;;;;;;1873073;76;20217;-53
2021/06/16 12:33:40;;;;;;;6.37;1.72;;;22.70;70.60;;;;;;1873084;75;21036;-52
2021/06/16 12:36:11;;;;;;;2.02;1.50;;;22.70;70.20;;;;;;1873014;76;21028;-53
2021/06/16 12:38:46;;;;;;;5.45;2.40;;;22.70;70.80;;;;;;1872078;76;21086;-52
2021/06/16 12:41:30;;;;;;;7.00;2.42;;;22.70;71.00;;;;;;1873272;76;21040;-52
2021/06/16 12:44:20;;;;;;;10.18;2.67;;;22.70;71.10;;;;;;1873121;75;21182;-52
2021/06/16 12:47:07;;;;;;;8.38;2.17;;;22.70;71.40;;;;;;1872997;76;21545;-53
2021/06/16 12:49:44;;;;;;;4.47;2.10;;;22.70;71.30;;;;;;1873228;75;21090;-53
2021/06/16 12:52:15;;;;;;;6.17;2.15;;;22.70;71.20;;;;;;1873168;75;21150;-53
2021/06/16 12:54:48;;;;;;;5.50;2.47;;;22.70;71.40;;;;;;1873064;75;21053;-53
2021/06/16 12:57:19;;;;;;;4.40;2.40;;;22.70;71.60;;;;;;1873183;76;21463;-53
2021/06/16 12:59:55;;;;;;;6.15;2.05;;;22.70;71.60;;;;;;1873314;76;21114;-53
2021/06/16 13:02:32;;;;;;;4.83;2.10;;;22.70;71.60;;;;;;1873180;75;21083;-52
2021/06/16 13:05:04;;;;;;;4.58;1.92;;;22.70;71.60;;;;;;1873178;75;21032;-52
2021/06/16 13:07:48;;;;;;;4.42;2.02;;;22.70;71.60;;;;;;1873181;75;21130;-52
2021/06/16 13:10:29;;;;;;;5.07;2.53;;;22.70;71.60;;;;;;1873320;75;21099;-51
2021/06/16 13:13:10;;;;;;;5.40;2.20;;;22.70;71.80;;;;;;1873184;75;21040;-53